Terminal Aerodrome Forecast
Issued by NWS Cleveland, OH

Home | Current Version | Previous Version | Text Only | Print | Product List | Glossary On
Versions: 1 2 3 4 5 6 7 8 9 10 11 12 13 14 15 16 17 18 19 20 21 22 23 24
279
FTUS41 KCLE 111740
TAFCAK
TAF
KCAK 111740Z 1118/1218 29010KT 6SM -SHSN OVC035
      TEMPO 1118/1121 3SM -SHSN OVC025
     FM112100 29012KT P6SM BKN040
     FM120100 23005KT P6SM BKN250
     FM121000 21005KT P6SM BKN100
     FM121500 23012G20KT P6SM SCT035 OVC100=

USA.gov is the U.S. government's official web portal to all federal, state and local government web resources and services.